sensor_id;sensor_type;location;lat;lon;timestamp;P1;durP1;ratioP1;P2;durP2;ratioP2
78610;SDS011;67932;50.474;4.436;2023-07-08T00:00:52;4.53;;;2.28;;
78610;SDS011;67932;50.474;4.436;2023-07-08T00:03:19;4.13;;;2.10;;
78610;SDS011;67932;50.474;4.436;2023-07-08T00:05:46;4.25;;;2.10;;
78610;SDS011;67932;50.474;4.436;2023-07-08T00:08:15;4.90;;;1.85;;
78610;SDS011;67932;50.474;4.436;2023-07-08T00:10:43;4.18;;;1.98;;
78610;SDS011;67932;50.474;4.436;2023-07-08T00:13:09;6.68;;;2.72;;
78610;SDS011;67932;50.474;4.436;2023-07-08T00:15:36;4.18;;;2.55;;
78610;SDS011;67932;50.474;4.436;2023-07-08T00:18:14;4.85;;;2.28;;
78610;SDS011;67932;50.474;4.436;2023-07-08T00:20:45;4.00;;;2.47;;
78610;SDS011;67932;50.474;4.436;2023-07-08T00:23:12;5.13;;;2.40;;
78610;SDS011;67932;50.474;4.436;2023-07-08T00:25:39;3.60;;;2.47;;
78610;SDS011;67932;50.474;4.436;2023-07-08T00:28:09;4.55;;;2.60;;
78610;SDS011;67932;50.474;4.436;2023-07-08T00:30:44;7.50;;;3.17;;
78610;SDS011;67932;50.474;4.436;2023-07-08T00:33:11;7.20;;;3.42;;
78610;SDS011;67932;50.474;4.436;2023-07-08T00:35:38;5.22;;;2.33;;
78610;SDS011;67932;50.474;4.436;2023-07-08T00:38:22;5.88;;;2.78;;
78610;SDS011;67932;50.474;4.436;2023-07-08T00:40:58;7.38;;;2.80;;
78610;SDS011;67932;50.474;4.436;2023-07-08T00:49:00;5.68;;;2.90;;
78610;SDS011;67932;50.474;4.436;2023-07-08T00:51:32;5.78;;;2.95;;
78610;SDS011;67932;50.474;4.436;2023-07-08T00:54:00;7.22;;;2.97;;
78610;SDS011;67932;50.474;4.436;2023-07-08T00:56:40;4.43;;;2.60;;
78610;SDS011;67932;50.474;4.436;2023-07-08T00:59:15;3.70;;;2.40;;
78610;SDS011;67932;50.474;4.436;2023-07-08T01:01:53;5.00;;;2.35;;
78610;SDS011;67932;50.474;4.436;2023-07-08T01:07:19;3.58;;;2.58;;
78610;SDS011;67932;50.474;4.436;2023-07-08T01:10:00;3.55;;;2.13;;
78610;SDS011;67932;50.474;4.436;2023-07-08T01:12:31;5.13;;;2.45;;
78610;SDS011;67932;50.474;4.436;2023-07-08T01:15:02;3.65;;;2.28;;
78610;SDS011;67932;50.474;4.436;2023-07-08T01:17:29;4.18;;;2.92;;
78610;SDS011;67932;50.474;4.436;2023-07-08T01:20:04;5.75;;;2.63;;
78610;SDS011;67932;50.474;4.436;2023-07-08T01:22:31;4.30;;;2.80;;
78610;SDS011;67932;50.474;4.436;2023-07-08T01:25:01;4.90;;;2.53;;
78610;SDS011;67932;50.474;4.436;2023-07-08T01:27:29;4.78;;;2.70;;
78610;SDS011;67932;50.474;4.436;2023-07-08T01:30:05;4.32;;;2.47;;
78610;SDS011;67932;50.474;4.436;2023-07-08T01:32:36;4.65;;;2.28;;
78610;SDS011;67932;50.474;4.436;2023-07-08T01:35:05;6.72;;;2.97;;
78610;SDS011;67932;50.474;4.436;2023-07-08T01:37:39;4.65;;;2.88;;
78610;SDS011;67932;50.474;4.436;2023-07-08T01:42:40;4.70;;;2.53;;
78610;SDS011;67932;50.474;4.436;2023-07-08T01:45:13;6.13;;;3.45;;
78610;SDS011;67932;50.474;4.436;2023-07-08T01:47:42;5.20;;;3.42;;
78610;SDS011;67932;50.474;4.436;2023-07-08T01:50:11;7.22;;;3.00;;
78610;SDS011;67932;50.474;4.436;2023-07-08T01:52:39;6.00;;;3.10;;
78610;SDS011;67932;50.474;4.436;2023-07-08T01:55:06;5.82;;;3.00;;
78610;SDS011;67932;50.474;4.436;2023-07-08T01:57:33;5.32;;;2.85;;
78610;SDS011;67932;50.474;4.436;2023-07-08T01:59:59;6.72;;;3.30;;
78610;SDS011;67932;50.474;4.436;2023-07-08T02:02:25;9.32;;;3.20;;
78610;SDS011;67932;50.474;4.436;2023-07-08T02:04:51;5.80;;;2.10;;
78610;SDS011;67932;50.474;4.436;2023-07-08T02:07:18;5.00;;;3.03;;
78610;SDS011;67932;50.474;4.436;2023-07-08T02:09:44;4.13;;;2.65;;
78610;SDS011;67932;50.474;4.436;2023-07-08T02:12:10;5.03;;;2.08;;
78610;SDS011;67932;50.474;4.436;2023-07-08T02:14:37;6.10;;;3.03;;
78610;SDS011;67932;50.474;4.436;2023-07-08T02:17:03;4.13;;;2.75;;
78610;SDS011;67932;50.474;4.436;2023-07-08T02:19:30;5.50;;;2.50;;
78610;SDS011;67932;50.474;4.436;2023-07-08T02:21:57;4.50;;;2.40;;
78610;SDS011;67932;50.474;4.436;2023-07-08T02:24:23;5.18;;;2.55;;
78610;SDS011;67932;50.474;4.436;2023-07-08T02:26:49;6.32;;;2.45;;
78610;SDS011;67932;50.474;4.436;2023-07-08T02:29:15;4.80;;;2.55;;
78610;SDS011;67932;50.474;4.436;2023-07-08T02:31:41;5.22;;;2.45;;
78610;SDS011;67932;50.474;4.436;2023-07-08T02:34:08;6.63;;;2.45;;
78610;SDS011;67932;50.474;4.436;2023-07-08T02:36:34;5.07;;;2.97;;
78610;SDS011;67932;50.474;4.436;2023-07-08T02:39:01;6.00;;;3.00;;
78610;SDS011;67932;50.474;4.436;2023-07-08T02:41:28;4.97;;;3.05;;
78610;SDS011;67932;50.474;4.436;2023-07-08T02:43:54;5.20;;;2.63;;
78610;SDS011;67932;50.474;4.436;2023-07-08T02:46:20;4.53;;;2.55;;
78610;SDS011;67932;50.474;4.436;2023-07-08T02:48:46;5.15;;;2.53;;
78610;SDS011;67932;50.474;4.436;2023-07-08T02:51:12;5.60;;;2.70;;
78610;SDS011;67932;50.474;4.436;2023-07-08T02:53:39;5.05;;;2.22;;
78610;SDS011;67932;50.474;4.436;2023-07-08T02:56:05;5.50;;;2.58;;
78610;SDS011;67932;50.474;4.436;2023-07-08T02:58:31;8.55;;;2.75;;
78610;SDS011;67932;50.474;4.436;2023-07-08T03:00:59;4.93;;;2.25;;
78610;SDS011;67932;50.474;4.436;2023-07-08T03:03:26;6.68;;;2.63;;
78610;SDS011;67932;50.474;4.436;2023-07-08T03:06:04;4.80;;;2.90;;
78610;SDS011;67932;50.474;4.436;2023-07-08T03:08:30;3.83;;;2.22;;
78610;SDS011;67932;50.474;4.436;2023-07-08T03:10:59;4.90;;;2.60;;
78610;SDS011;67932;50.474;4.436;2023-07-08T03:13:27;3.80;;;2.20;;
78610;SDS011;67932;50.474;4.436;2023-07-08T03:15:54;3.95;;;2.40;;
78610;SDS011;67932;50.474;4.436;2023-07-08T03:18:22;4.55;;;2.72;;
78610;SDS011;67932;50.474;4.436;2023-07-08T03:20:49;5.63;;;2.95;;
78610;SDS011;67932;50.474;4.436;2023-07-08T03:23:15;4.32;;;2.47;;
78610;SDS011;67932;50.474;4.436;2023-07-08T03:25:41;6.13;;;2.50;;
78610;SDS011;67932;50.474;4.436;2023-07-08T03:28:08;7.18;;;3.08;;
78610;SDS011;67932;50.474;4.436;2023-07-08T03:30:43;5.15;;;2.70;;
78610;SDS011;67932;50.474;4.436;2023-07-08T03:33:10;4.18;;;2.40;;
78610;SDS011;67932;50.474;4.436;2023-07-08T03:35:37;6.10;;;3.20;;
78610;SDS011;67932;50.474;4.436;2023-07-08T03:38:04;4.03;;;2.25;;
78610;SDS011;67932;50.474;4.436;2023-07-08T03:40:30;6.57;;;2.13;;
78610;SDS011;67932;50.474;4.436;2023-07-08T03:42:57;6.10;;;2.70;;
78610;SDS011;67932;50.474;4.436;2023-07-08T03:45:25;6.65;;;2.63;;
78610;SDS011;67932;50.474;4.436;2023-07-08T03:47:51;4.03;;;2.33;;
78610;SDS011;67932;50.474;4.436;2023-07-08T03:50:22;4.18;;;2.38;;
78610;SDS011;67932;50.474;4.436;2023-07-08T03:52:50;4.95;;;2.50;;
78610;SDS011;67932;50.474;4.436;2023-07-08T03:55:17;4.57;;;2.30;;
78610;SDS011;67932;50.474;4.436;2023-07-08T03:57:44;4.13;;;2.42;;
78610;SDS011;67932;50.474;4.436;2023-07-08T04:00:11;4.28;;;2.38;;
78610;SDS011;67932;50.474;4.436;2023-07-08T04:02:38;6.07;;;2.67;;
78610;SDS011;67932;50.474;4.436;2023-07-08T04:05:05;5.63;;;2.38;;
78610;SDS011;67932;50.474;4.436;2023-07-08T04:07:35;5.75;;;2.70;;
78610;SDS011;67932;50.474;4.436;2023-07-08T04:10:02;5.85;;;2.80;;
78610;SDS011;67932;50.474;4.436;2023-07-08T04:12:28;5.68;;;2.13;;
78610;SDS011;67932;50.474;4.436;2023-07-08T04:14:54;6.35;;;2.58;;
78610;SDS011;67932;50.474;4.436;2023-07-08T04:17:20;6.40;;;2.72;;
78610;SDS011;67932;50.474;4.436;2023-07-08T04:19:48;4.25;;;2.50;;
78610;SDS011;67932;50.474;4.436;2023-07-08T04:22:15;6.88;;;3.00;;
78610;SDS011;67932;50.474;4.436;2023-07-08T04:24:41;5.00;;;2.67;;
78610;SDS011;67932;50.474;4.436;2023-07-08T04:27:11;3.97;;;2.25;;
78610;SDS011;67932;50.474;4.436;2023-07-08T04:29:40;5.30;;;3.00;;
78610;SDS011;67932;50.474;4.436;2023-07-08T04:32:07;6.80;;;2.97;;
78610;SDS011;67932;50.474;4.436;2023-07-08T04:34:33;5.22;;;2.33;;
78610;SDS011;67932;50.474;4.436;2023-07-08T04:37:00;6.82;;;2.72;;
78610;SDS011;67932;50.474;4.436;2023-07-08T04:39:26;6.43;;;2.95;;
78610;SDS011;67932;50.474;4.436;2023-07-08T04:41:52;5.78;;;2.90;;
78610;SDS011;67932;50.474;4.436;2023-07-08T04:44:19;5.70;;;2.83;;
78610;SDS011;67932;50.474;4.436;2023-07-08T04:46:46;7.50;;;3.30;;
78610;SDS011;67932;50.474;4.436;2023-07-08T04:49:18;4.20;;;2.58;;
78610;SDS011;67932;50.474;4.436;2023-07-08T04:51:45;5.60;;;3.05;;
78610;SDS011;67932;50.474;4.436;2023-07-08T04:54:11;6.25;;;3.10;;
78610;SDS011;67932;50.474;4.436;2023-07-08T04:59:04;6.43;;;3.17;;
78610;SDS011;67932;50.474;4.436;2023-07-08T05:01:32;4.35;;;2.70;;
78610;SDS011;67932;50.474;4.436;2023-07-08T05:03:58;5.25;;;2.55;;
78610;SDS011;67932;50.474;4.436;2023-07-08T05:06:26;5.25;;;3.10;;
78610;SDS011;67932;50.474;4.436;2023-07-08T05:08:53;6.20;;;3.50;;
78610;SDS011;67932;50.474;4.436;2023-07-08T05:11:19;8.05;;;2.78;;
78610;SDS011;67932;50.474;4.436;2023-07-08T05:13:45;7.47;;;3.30;;
78610;SDS011;67932;50.474;4.436;2023-07-08T05:16:12;6.55;;;3.10;;
78610;SDS011;67932;50.474;4.436;2023-07-08T05:18:38;5.55;;;2.90;;
78610;SDS011;67932;50.474;4.436;2023-07-08T05:21:04;5.60;;;2.80;;
78610;SDS011;67932;50.474;4.436;2023-07-08T05:23:30;5.82;;;3.20;;
78610;SDS011;67932;50.474;4.436;2023-07-08T05:26:00;7.35;;;3.35;;
78610;SDS011;67932;50.474;4.436;2023-07-08T05:28:27;5.47;;;2.72;;
78610;SDS011;67932;50.474;4.436;2023-07-08T05:30:54;5.78;;;3.22;;
78610;SDS011;67932;50.474;4.436;2023-07-08T05:33:21;7.32;;;2.97;;
78610;SDS011;67932;50.474;4.436;2023-07-08T05:35:49;4.93;;;2.92;;
78610;SDS011;67932;50.474;4.436;2023-07-08T05:38:15;5.95;;;3.30;;
78610;SDS011;67932;50.474;4.436;2023-07-08T05:40:42;5.32;;;3.20;;
78610;SDS011;67932;50.474;4.436;2023-07-08T05:43:08;6.88;;;2.72;;
78610;SDS011;67932;50.474;4.436;2023-07-08T05:45:34;7.30;;;2.65;;
78610;SDS011;67932;50.474;4.436;2023-07-08T05:48:01;5.07;;;2.55;;
78610;SDS011;67932;50.474;4.436;2023-07-08T05:50:27;5.28;;;3.20;;
78610;SDS011;67932;50.474;4.436;2023-07-08T05:52:54;6.65;;;3.45;;
78610;SDS011;67932;50.474;4.436;2023-07-08T05:55:20;6.63;;;3.20;;
78610;SDS011;67932;50.474;4.436;2023-07-08T05:57:46;4.80;;;3.20;;
78610;SDS011;67932;50.474;4.436;2023-07-08T06:00:12;6.53;;;3.22;;
78610;SDS011;67932;50.474;4.436;2023-07-08T06:02:39;6.57;;;3.70;;
78610;SDS011;67932;50.474;4.436;2023-07-08T06:05:05;7.38;;;3.88;;
78610;SDS011;67932;50.474;4.436;2023-07-08T06:07:32;5.43;;;3.30;;
78610;SDS011;67932;50.474;4.436;2023-07-08T06:09:58;8.50;;;3.60;;
78610;SDS011;67932;50.474;4.436;2023-07-08T06:12:24;6.18;;;3.38;;
78610;SDS011;67932;50.474;4.436;2023-07-08T06:14:51;5.07;;;3.55;;
78610;SDS011;67932;50.474;4.436;2023-07-08T06:17:17;6.82;;;3.30;;
78610;SDS011;67932;50.474;4.436;2023-07-08T06:19:43;6.35;;;3.55;;
78610;SDS011;67932;50.474;4.436;2023-07-08T06:22:10;7.88;;;3.42;;
78610;SDS011;67932;50.474;4.436;2023-07-08T06:24:36;6.65;;;3.50;;
78610;SDS011;67932;50.474;4.436;2023-07-08T06:27:03;7.00;;;3.15;;
78610;SDS011;67932;50.474;4.436;2023-07-08T06:29:29;6.25;;;3.58;;
78610;SDS011;67932;50.474;4.436;2023-07-08T06:31:55;5.28;;;3.10;;
78610;SDS011;67932;50.474;4.436;2023-07-08T06:34:21;8.45;;;3.67;;
78610;SDS011;67932;50.474;4.436;2023-07-08T06:36:49;6.85;;;3.90;;
78610;SDS011;67932;50.474;4.436;2023-07-08T06:39:16;7.43;;;3.67;;
78610;SDS011;67932;50.474;4.436;2023-07-08T06:41:42;7.50;;;3.67;;
78610;SDS011;67932;50.474;4.436;2023-07-08T06:44:09;8.15;;;3.58;;
78610;SDS011;67932;50.474;4.436;2023-07-08T06:46:36;8.68;;;3.60;;
78610;SDS011;67932;50.474;4.436;2023-07-08T06:49:02;5.90;;;3.42;;
78610;SDS011;67932;50.474;4.436;2023-07-08T06:51:33;8.00;;;4.00;;
78610;SDS011;67932;50.474;4.436;2023-07-08T06:54:00;7.35;;;3.88;;
78610;SDS011;67932;50.474;4.436;2023-07-08T06:56:36;8.52;;;3.58;;
78610;SDS011;67932;50.474;4.436;2023-07-08T06:59:09;8.18;;;4.07;;
78610;SDS011;67932;50.474;4.436;2023-07-08T07:01:35;6.05;;;3.75;;
78610;SDS011;67932;50.474;4.436;2023-07-08T07:04:04;6.60;;;3.33;;
78610;SDS011;67932;50.474;4.436;2023-07-08T07:06:30;8.40;;;3.78;;
78610;SDS011;67932;50.474;4.436;2023-07-08T07:08:57;8.38;;;3.58;;
78610;SDS011;67932;50.474;4.436;2023-07-08T07:11:23;7.18;;;4.20;;
78610;SDS011;67932;50.474;4.436;2023-07-08T07:13:49;7.03;;;4.05;;
78610;SDS011;67932;50.474;4.436;2023-07-08T07:16:15;8.48;;;3.85;;
78610;SDS011;67932;50.474;4.436;2023-07-08T07:18:41;8.60;;;4.18;;
78610;SDS011;67932;50.474;4.436;2023-07-08T07:21:08;9.88;;;4.97;;
78610;SDS011;67932;50.474;4.436;2023-07-08T07:23:34;8.48;;;3.90;;
78610;SDS011;67932;50.474;4.436;2023-07-08T07:26:00;10.25;;;4.38;;
78610;SDS011;67932;50.474;4.436;2023-07-08T07:28:28;8.13;;;3.80;;
78610;SDS011;67932;50.474;4.436;2023-07-08T07:30:58;10.63;;;4.53;;
78610;SDS011;67932;50.474;4.436;2023-07-08T07:33:25;8.48;;;3.50;;
78610;SDS011;67932;50.474;4.436;2023-07-08T07:35:52;8.18;;;3.90;;
78610;SDS011;67932;50.474;4.436;2023-07-08T07:38:18;11.88;;;4.47;;
78610;SDS011;67932;50.474;4.436;2023-07-08T07:40:44;11.00;;;4.40;;
78610;SDS011;67932;50.474;4.436;2023-07-08T07:43:11;8.68;;;4.18;;
78610;SDS011;67932;50.474;4.436;2023-07-08T07:45:37;6.72;;;4.32;;
78610;SDS011;67932;50.474;4.436;2023-07-08T07:48:03;7.65;;;4.10;;
78610;SDS011;67932;50.474;4.436;2023-07-08T07:50:30;6.88;;;3.85;;
78610;SDS011;67932;50.474;4.436;2023-07-08T07:52:56;8.73;;;3.95;;
78610;SDS011;67932;50.474;4.436;2023-07-08T07:55:23;7.13;;;3.70;;
78610;SDS011;67932;50.474;4.436;2023-07-08T07:57:49;6.60;;;3.65;;
78610;SDS011;67932;50.474;4.436;2023-07-08T08:00:15;5.78;;;3.65;;
78610;SDS011;67932;50.474;4.436;2023-07-08T08:02:42;7.75;;;4.15;;
78610;SDS011;67932;50.474;4.436;2023-07-08T08:05:08;6.93;;;3.30;;
78610;SDS011;67932;50.474;4.436;2023-07-08T08:07:35;9.40;;;4.05;;
78610;SDS011;67932;50.474;4.436;2023-07-08T08:10:01;8.82;;;4.00;;
78610;SDS011;67932;50.474;4.436;2023-07-08T08:12:28;6.22;;;3.40;;
78610;SDS011;67932;50.474;4.436;2023-07-08T08:14:55;8.32;;;3.80;;
78610;SDS011;67932;50.474;4.436;2023-07-08T08:17:21;6.15;;;3.35;;
78610;SDS011;67932;50.474;4.436;2023-07-08T08:19:47;6.05;;;3.95;;
78610;SDS011;67932;50.474;4.436;2023-07-08T08:22:13;7.95;;;4.15;;
78610;SDS011;67932;50.474;4.436;2023-07-08T08:24:40;6.38;;;3.80;;
78610;SDS011;67932;50.474;4.436;2023-07-08T08:27:06;8.15;;;3.63;;
78610;SDS011;67932;50.474;4.436;2023-07-08T08:29:32;6.28;;;3.72;;
78610;SDS011;67932;50.474;4.436;2023-07-08T08:31:59;7.10;;;3.83;;
78610;SDS011;67932;50.474;4.436;2023-07-08T08:34:25;7.88;;;3.80;;
78610;SDS011;67932;50.474;4.436;2023-07-08T08:36:51;7.38;;;3.47;;
78610;SDS011;67932;50.474;4.436;2023-07-08T08:39:20;10.20;;;4.35;;
78610;SDS011;67932;50.474;4.436;2023-07-08T08:41:47;6.75;;;3.47;;
78610;SDS011;67932;50.474;4.436;2023-07-08T08:44:20;8.38;;;3.85;;
78610;SDS011;67932;50.474;4.436;2023-07-08T08:47:06;8.07;;;3.78;;
78610;SDS011;67932;50.474;4.436;2023-07-08T08:49:41;4.50;;;2.95;;
78610;SDS011;67932;50.474;4.436;2023-07-08T08:52:40;7.45;;;3.53;;
78610;SDS011;67932;50.474;4.436;2023-07-08T08:55:11;8.38;;;3.70;;
78610;SDS011;67932;50.474;4.436;2023-07-08T08:57:52;10.07;;;4.63;;
78610;SDS011;67932;50.474;4.436;2023-07-08T09:03:14;5.95;;;3.53;;
78610;SDS011;67932;50.474;4.436;2023-07-08T09:05:46;6.25;;;3.70;;
78610;SDS011;67932;50.474;4.436;2023-07-08T09:08:14;6.22;;;3.55;;
78610;SDS011;67932;50.474;4.436;2023-07-08T09:10:46;7.28;;;3.75;;
78610;SDS011;67932;50.474;4.436;2023-07-08T09:13:36;6.55;;;4.40;;
78610;SDS011;67932;50.474;4.436;2023-07-08T09:18:32;4.93;;;3.00;;
78610;SDS011;67932;50.474;4.436;2023-07-08T09:21:13;8.52;;;3.50;;
78610;SDS011;67932;50.474;4.436;2023-07-08T09:23:47;7.15;;;4.10;;
78610;SDS011;67932;50.474;4.436;2023-07-08T09:26:17;8.15;;;3.85;;
78610;SDS011;67932;50.474;4.436;2023-07-08T09:28:46;7.07;;;3.40;;
78610;SDS011;67932;50.474;4.436;2023-07-08T09:31:23;8.65;;;3.88;;
78610;SDS011;67932;50.474;4.436;2023-07-08T09:34:08;5.32;;;3.50;;
78610;SDS011;67932;50.474;4.436;2023-07-08T09:36:45;7.43;;;3.45;;
78610;SDS011;67932;50.474;4.436;2023-07-08T09:39:18;6.95;;;3.10;;
78610;SDS011;67932;50.474;4.436;2023-07-08T09:41:46;7.35;;;3.58;;
78610;SDS011;67932;50.474;4.436;2023-07-08T09:44:15;5.88;;;2.90;;
78610;SDS011;67932;50.474;4.436;2023-07-08T09:46:42;8.45;;;3.85;;
78610;SDS011;67932;50.474;4.436;2023-07-08T09:49:15;6.03;;;3.95;;
78610;SDS011;67932;50.474;4.436;2023-07-08T09:52:00;5.43;;;3.33;;
78610;SDS011;67932;50.474;4.436;2023-07-08T09:54:27;6.60;;;3.67;;
78610;SDS011;67932;50.474;4.436;2023-07-08T09:56:58;7.85;;;3.40;;
78610;SDS011;67932;50.474;4.436;2023-07-08T09:59:46;8.50;;;4.10;;
78610;SDS011;67932;50.474;4.436;2023-07-08T10:04:56;6.88;;;4.20;;
78610;SDS011;67932;50.474;4.436;2023-07-08T10:07:29;12.00;;;3.70;;
78610;SDS011;67932;50.474;4.436;2023-07-08T10:09:57;5.45;;;3.25;;
78610;SDS011;67932;50.474;4.436;2023-07-08T10:12:26;7.72;;;3.35;;
78610;SDS011;67932;50.474;4.436;2023-07-08T10:17:47;7.47;;;3.70;;
78610;SDS011;67932;50.474;4.436;2023-07-08T10:20:13;7.32;;;4.00;;
78610;SDS011;67932;50.474;4.436;2023-07-08T10:25:26;6.55;;;3.50;;
78610;SDS011;67932;50.474;4.436;2023-07-08T10:33:43;7.80;;;3.38;;
78610;SDS011;67932;50.474;4.436;2023-07-08T10:38:59;7.13;;;3.50;;
78610;SDS011;67932;50.474;4.436;2023-07-08T10:55:49;7.63;;;3.60;;
78610;SDS011;67932;50.474;4.436;2023-07-08T10:58:20;4.45;;;3.22;;
78610;SDS011;67932;50.474;4.436;2023-07-08T11:03:51;8.32;;;3.47;;
78610;SDS011;67932;50.474;4.436;2023-07-08T11:06:37;6.93;;;3.50;;
78610;SDS011;67932;50.474;4.436;2023-07-08T11:09:13;7.45;;;3.83;;
78610;SDS011;67932;50.474;4.436;2023-07-08T11:12:20;5.10;;;3.10;;
78610;SDS011;67932;50.474;4.436;2023-07-08T11:14:59;6.32;;;3.53;;
78610;SDS011;67932;50.474;4.436;2023-07-08T11:17:46;5.43;;;3.10;;
78610;SDS011;67932;50.474;4.436;2023-07-08T11:20:21;5.50;;;3.25;;
78610;SDS011;67932;50.474;4.436;2023-07-08T11:23:01;6.78;;;3.47;;
78610;SDS011;67932;50.474;4.436;2023-07-08T11:25:44;6.68;;;3.00;;
78610;SDS011;67932;50.474;4.436;2023-07-08T11:28:12;5.45;;;3.30;;
78610;SDS011;67932;50.474;4.436;2023-07-08T11:30:43;5.30;;;3.53;;
78610;SDS011;67932;50.474;4.436;2023-07-08T11:33:15;7.82;;;3.72;;
78610;SDS011;67932;50.474;4.436;2023-07-08T11:35:48;7.28;;;4.13;;
78610;SDS011;67932;50.474;4.436;2023-07-08T11:38:20;5.80;;;4.05;;
78610;SDS011;67932;50.474;4.436;2023-07-08T11:40:50;10.38;;;4.13;;
78610;SDS011;67932;50.474;4.436;2023-07-08T11:43:19;9.75;;;3.90;;
78610;SDS011;67932;50.474;4.436;2023-07-08T11:45:48;8.35;;;4.38;;
78610;SDS011;67932;50.474;4.436;2023-07-08T11:48:21;7.75;;;3.60;;
78610;SDS011;67932;50.474;4.436;2023-07-08T11:50:48;7.10;;;4.40;;
78610;SDS011;67932;50.474;4.436;2023-07-08T11:58:58;6.78;;;4.22;;
78610;SDS011;67932;50.474;4.436;2023-07-08T12:01:24;8.35;;;3.70;;
78610;SDS011;67932;50.474;4.436;2023-07-08T12:06:43;7.93;;;4.25;;
78610;SDS011;67932;50.474;4.436;2023-07-08T12:09:25;6.68;;;4.10;;
78610;SDS011;67932;50.474;4.436;2023-07-08T12:11:57;7.35;;;4.20;;
78610;SDS011;67932;50.474;4.436;2023-07-08T12:14:27;6.03;;;3.58;;
78610;SDS011;67932;50.474;4.436;2023-07-08T12:16:54;6.75;;;3.80;;
78610;SDS011;67932;50.474;4.436;2023-07-08T12:19:21;6.38;;;4.53;;
78610;SDS011;67932;50.474;4.436;2023-07-08T12:21:50;8.98;;;3.90;;
78610;SDS011;67932;50.474;4.436;2023-07-08T12:24:17;7.22;;;4.10;;
78610;SDS011;67932;50.474;4.436;2023-07-08T12:26:50;6.30;;;3.63;;
78610;SDS011;67932;50.474;4.436;2023-07-08T12:29:16;5.35;;;3.25;;
78610;SDS011;67932;50.474;4.436;2023-07-08T12:31:42;7.75;;;4.00;;
78610;SDS011;67932;50.474;4.436;2023-07-08T12:34:14;6.75;;;3.65;;
78610;SDS011;67932;50.474;4.436;2023-07-08T12:36:42;5.45;;;3.65;;
78610;SDS011;67932;50.474;4.436;2023-07-08T12:39:14;5.85;;;3.88;;
78610;SDS011;67932;50.474;4.436;2023-07-08T12:41:42;6.78;;;3.50;;
78610;SDS011;67932;50.474;4.436;2023-07-08T12:44:22;5.70;;;3.63;;
78610;SDS011;67932;50.474;4.436;2023-07-08T12:46:50;9.10;;;3.75;;
78610;SDS011;67932;50.474;4.436;2023-07-08T12:49:19;7.13;;;3.88;;
78610;SDS011;67932;50.474;4.436;2023-07-08T12:51:47;9.07;;;3.72;;
78610;SDS011;67932;50.474;4.436;2023-07-08T12:54:13;7.43;;;3.97;;
78610;SDS011;67932;50.474;4.436;2023-07-08T12:56:40;11.07;;;3.83;;
78610;SDS011;67932;50.474;4.436;2023-07-08T12:59:11;6.22;;;3.90;;
78610;SDS011;67932;50.474;4.436;2023-07-08T13:01:43;7.65;;;4.18;;
78610;SDS011;67932;50.474;4.436;2023-07-08T13:04:12;9.35;;;4.55;;
78610;SDS011;67932;50.474;4.436;2023-07-08T13:06:39;6.93;;;4.07;;
78610;SDS011;67932;50.474;4.436;2023-07-08T13:09:21;4.38;;;3.22;;
78610;SDS011;67932;50.474;4.436;2023-07-08T13:12:26;5.63;;;3.55;;
78610;SDS011;67932;50.474;4.436;2023-07-08T13:14:52;7.72;;;3.78;;
78610;SDS011;67932;50.474;4.436;2023-07-08T13:17:21;5.30;;;3.63;;
78610;SDS011;67932;50.474;4.436;2023-07-08T13:19:48;8.70;;;4.05;;
78610;SDS011;67932;50.474;4.436;2023-07-08T13:22:17;5.25;;;3.50;;
78610;SDS011;67932;50.474;4.436;2023-07-08T13:24:45;5.22;;;3.35;;
78610;SDS011;67932;50.474;4.436;2023-07-08T13:27:30;7.35;;;4.43;;
78610;SDS011;67932;50.474;4.436;2023-07-08T13:30:06;6.30;;;3.70;;
78610;SDS011;67932;50.474;4.436;2023-07-08T13:32:44;6.75;;;3.75;;
78610;SDS011;67932;50.474;4.436;2023-07-08T13:35:20;6.53;;;3.50;;
78610;SDS011;67932;50.474;4.436;2023-07-08T13:37:48;7.18;;;3.53;;
78610;SDS011;67932;50.474;4.436;2023-07-08T13:40:15;6.20;;;3.95;;
78610;SDS011;67932;50.474;4.436;2023-07-08T13:42:49;8.48;;;4.18;;
78610;SDS011;67932;50.474;4.436;2023-07-08T13:45:17;11.15;;;4.38;;
78610;SDS011;67932;50.474;4.436;2023-07-08T13:48:00;7.43;;;4.35;;
78610;SDS011;67932;50.474;4.436;2023-07-08T13:50:27;8.25;;;3.80;;
78610;SDS011;67932;50.474;4.436;2023-07-08T13:53:00;6.40;;;4.10;;
78610;SDS011;67932;50.474;4.436;2023-07-08T13:55:28;6.93;;;3.95;;
78610;SDS011;67932;50.474;4.436;2023-07-08T13:57:58;8.00;;;4.22;;
78610;SDS011;67932;50.474;4.436;2023-07-08T14:00:28;8.10;;;3.67;;
78610;SDS011;67932;50.474;4.436;2023-07-08T14:02:56;7.03;;;3.70;;
78610;SDS011;67932;50.474;4.436;2023-07-08T14:05:22;8.77;;;5.20;;
78610;SDS011;67932;50.474;4.436;2023-07-08T14:07:49;5.95;;;3.78;;
78610;SDS011;67932;50.474;4.436;2023-07-08T14:10:15;4.82;;;3.72;;
78610;SDS011;67932;50.474;4.436;2023-07-08T14:12:41;7.97;;;4.15;;
78610;SDS011;67932;50.474;4.436;2023-07-08T14:15:08;13.30;;;7.90;;
78610;SDS011;67932;50.474;4.436;2023-07-08T14:17:35;9.63;;;4.65;;
78610;SDS011;67932;50.474;4.436;2023-07-08T14:20:07;7.65;;;4.57;;
78610;SDS011;67932;50.474;4.436;2023-07-08T14:22:40;8.63;;;4.68;;
78610;SDS011;67932;50.474;4.436;2023-07-08T14:25:07;6.80;;;3.67;;
78610;SDS011;67932;50.474;4.436;2023-07-08T14:27:35;7.85;;;3.50;;
78610;SDS011;67932;50.474;4.436;2023-07-08T14:30:01;6.15;;;3.45;;
78610;SDS011;67932;50.474;4.436;2023-07-08T14:32:28;5.20;;;3.38;;
78610;SDS011;67932;50.474;4.436;2023-07-08T14:35:10;6.72;;;3.58;;
78610;SDS011;67932;50.474;4.436;2023-07-08T14:37:43;6.43;;;3.53;;
78610;SDS011;67932;50.474;4.436;2023-07-08T14:42:56;5.25;;;3.40;;
78610;SDS011;67932;50.474;4.436;2023-07-08T14:45:46;8.20;;;3.60;;
78610;SDS011;67932;50.474;4.436;2023-07-08T14:48:15;5.35;;;3.30;;
78610;SDS011;67932;50.474;4.436;2023-07-08T14:50:41;5.82;;;3.38;;
78610;SDS011;67932;50.474;4.436;2023-07-08T14:53:08;5.47;;;3.38;;
78610;SDS011;67932;50.474;4.436;2023-07-08T14:55:34;5.88;;;3.20;;
78610;SDS011;67932;50.474;4.436;2023-07-08T14:58:02;6.18;;;4.13;;
78610;SDS011;67932;50.474;4.436;2023-07-08T15:00:28;7.28;;;3.65;;
78610;SDS011;67932;50.474;4.436;2023-07-08T15:02:55;4.75;;;3.40;;
78610;SDS011;67932;50.474;4.436;2023-07-08T15:05:25;7.47;;;3.75;;
78610;SDS011;67932;50.474;4.436;2023-07-08T15:07:56;4.57;;;3.33;;
78610;SDS011;67932;50.474;4.436;2023-07-08T15:10:24;6.15;;;3.63;;
78610;SDS011;67932;50.474;4.436;2023-07-08T15:12:52;10.35;;;3.60;;
78610;SDS011;67932;50.474;4.436;2023-07-08T15:15:32;7.32;;;3.55;;
78610;SDS011;67932;50.474;4.436;2023-07-08T15:18:11;4.78;;;3.22;;
78610;SDS011;67932;50.474;4.436;2023-07-08T15:20:39;4.95;;;3.22;;
78610;SDS011;67932;50.474;4.436;2023-07-08T15:23:06;4.07;;;3.10;;
78610;SDS011;67932;50.474;4.436;2023-07-08T15:25:33;6.40;;;3.47;;
78610;SDS011;67932;50.474;4.436;2023-07-08T15:28:01;4.93;;;3.30;;
78610;SDS011;67932;50.474;4.436;2023-07-08T15:30:29;5.47;;;3.15;;
78610;SDS011;67932;50.474;4.436;2023-07-08T15:32:56;7.07;;;3.53;;
78610;SDS011;67932;50.474;4.436;2023-07-08T15:35:24;7.95;;;4.18;;
78610;SDS011;67932;50.474;4.436;2023-07-08T15:37:55;6.00;;;3.80;;
78610;SDS011;67932;50.474;4.436;2023-07-08T15:40:22;5.18;;;3.13;;
78610;SDS011;67932;50.474;4.436;2023-07-08T15:42:51;7.00;;;3.60;;
78610;SDS011;67932;50.474;4.436;2023-07-08T15:45:23;4.78;;;3.17;;
78610;SDS011;67932;50.474;4.436;2023-07-08T15:47:51;8.32;;;3.60;;
78610;SDS011;67932;50.474;4.436;2023-07-08T15:50:19;5.90;;;3.58;;
78610;SDS011;67932;50.474;4.436;2023-07-08T15:52:48;6.32;;;3.22;;
78610;SDS011;67932;50.474;4.436;2023-07-08T15:55:20;6.65;;;3.67;;
78610;SDS011;67932;50.474;4.436;2023-07-08T15:58:01;5.72;;;3.30;;
78610;SDS011;67932;50.474;4.436;2023-07-08T16:00:44;6.20;;;3.78;;
78610;SDS011;67932;50.474;4.436;2023-07-08T16:03:18;6.32;;;3.85;;
78610;SDS011;67932;50.474;4.436;2023-07-08T16:05:51;5.30;;;3.55;;